ADDS METAR Data INFO
IDs: Format: Raw Decoded Include TAF

Data at: 1249 UTC 19 Oct 2017

KMIA 191153Z 35004KT 10SM FEW005 FEW020 FEW150 25/24 A3001 RMK AO2 SLP161 CB DSNT N TCU DSNT NE-SE-S T02500239 10250 20244 53011
KMIA 191053Z 01004KT 10SM FEW005 FEW020 FEW250 24/23 A2999 RMK AO2 SLP157 T02440233
KMIA 191049Z 00000KT 10SM FEW005 FEW020 FEW250 24/23 A2999 RMK AO2
KMIA 190953Z 00000KT 10SM SCT250 24/23 A2998 RMK AO2 SLP151 T02440233
KMIA 190853Z 34004KT 10SM FEW120 BKN250 25/23 A2998 RMK AO2 SLP150 T02500228 56013
KMIA 190753Z VRB03KT 10SM FEW020 FEW150 BKN250 25/23 A2998 RMK AO2 SLP152 T02500233
KMIA 190653Z 33003KT 10SM FEW025 FEW120 BKN250 25/23 A3000 RMK AO2 SLP157 T02500233
KMIA 190553Z 35003KT 10SM FEW023 FEW120 SCT250 25/23 A3001 RMK AO2 SLP163 T02500233 10278 20250 58008
KMIA 190453Z 01004KT 10SM FEW022 SCT100 BKN250 26/23 A3002 RMK AO2 SLP165 T02560233 403110250
KMIA 190353Z 35005KT 10SM FEW022 FEW030 SCT120 BKN250 26/23 A3004 RMK AO2 SLP173 T02610233
KMIA 190253Z 00000KT 10SM FEW024 FEW036 BKN080 OVC250 27/23 A3004 RMK AO2 SLP171 CB DSNT NE T02670228 51010
KMIA 190153Z 04004KT 10SM SCT024 BKN080 OVC250 27/23 A3003 RMK AO2 SLP168 T02720233
KMIA 190053Z 03006KT 10SM FEW024 FEW060 BKN080 OVC250 28/23 A3002 RMK AO2 SLP166 T02780233
KMIA 182353Z 04007KT 10SM FEW024 SCT060 BKN080 OVC250 28/23 A3001 RMK AO2 SLP161 60000 T02780228 10311 20272 53017
KMIA 182253Z 06007KT 10SM SCT024 BKN070 BKN120 BKN250 27/23 A2998 RMK AO2 RAB09E40 SLP153 CB DSNT E AND SW TCU DSNT NW P0000 T02720233
KMIA 182153Z 05007KT 10SM SCT026TCU BKN080 BKN250 29/23 A2997 RMK AO2 SLP149 TCU OHD-NW T02940228
KMIA 182053Z 05007KT 10SM SCT026 BKN060 BKN080 BKN250 30/22 A2996 RMK AO2 SLP144 TCU DSNT N T03000217 56017
KMIA 181953Z 03006KT 10SM SCT026TCU BKN070 BKN250 31/23 A2997 RMK AO2 SLP149 TCU SW AND DSNT NW T03060228
KMIA 181853Z 02006KT 10SM FEW026TCU FEW100 BKN160 BKN220 30/22 A2999 RMK AO2 SLP155 TCU SW AND DSNT NW-N T03000222
KMIA 181753Z 08007KT 030V110 10SM FEW022 SCT090 BKN160 BKN250 29/23 A3001 RMK AO2 SLP162 TCU DSNT ALQDS T02940228 10294 20267 58012
KMIA 181653Z COR 02005KT 10SM SCT022TCU BKN150 BKN250 29/24 A3003 RMK AO2 TCU N-OHD-SW SLP170 T02890239
KMIA 181553Z 04007KT 10SM FEW020 FEW055 BKN140 OVC250 29/24 A3005 RMK AO2 SLP175 CB DSNT NE-SE MOV STNRY T02890239
KMIA 181453Z 04007KT 10SM SCT036 BKN150 OVC250 28/24 A3004 RMK AO2 SLP174 CB DSNT NE-SE MOV STNRY T02830239 53013
KMIA 181353Z 03005KT 10SM FEW030 BKN150 OVC250 28/24 A3004 RMK AO2 SLP171 CB DSNT NE AND S T02780239
KMIA 181253Z 36005KT 10SM FEW022 SCT032 BKN130 OVC150 27/23 A3001 RMK AO2 SLP163 CB DSNT NE-E T02720233
KMIA 181153Z 00000KT 10SM FEW022 OVC120 27/24 A3001 RMK AO2 SLP161 60002 70002 T02670239 10278 20250 53012
KMIA 181053Z 00000KT 10SM FEW022 FEW110 BKN130 OVC250 26/23 A2999 RMK AO2 SLP155 T02610233 $
KMIA 180953Z 36003KT 10SM FEW023 SCT110 BKN130 OVC250 26/24 A2998 RMK AO2 SLP150 T02560239 $
KMIA 180853Z 14003KT 10SM FEW023CB BKN040 BKN070 OVC250 26/21 A2997 RMK AO2 RAB23E50 SLP148 CB NE MOV NW P0002 60002 T02560211 55007 $
KMIA 180840Z 00000KT 8SM -RA SCT023CB BKN050 BKN080 OVC250 25/21 A2997 RMK AO2 RAB23 CB NE AND W MOV NW P0002 T02500211 $
KMIA 180816Z 08007KT 10SM FEW017 BKN024CB BKN120 OVC250 26/21 A2997 RMK AO2 CB E MOV N CB SW MOV W T02610211 $
KMIA 180753Z 01005KT 10SM FEW010 SCT023CB BKN120 BKN160 OVC250 27/22 A2997 RMK AO2 SLP148 CB SE-S MOV N T02670222 $
KMIA 180653Z 02004KT 10SM SCT024 BKN160 OVC240 27/24 A2998 RMK AO2 SLP151 T02720239 $
KMIA 180553Z 01003KT 10SM SCT024 SCT034 BKN160 OVC230 28/24 A2999 RMK AO2 SLP155 T02780239 10283 20278 58011 $
KMIA 180453Z 00000KT 10SM FEW024 FEW040 BKN160 OVC250 28/23 A3000 RMK AO2 SLP159 T02780233 403170239 $
KMIA 180353Z 02004KT 10SM SCT025 SCT041 BKN170 OVC250 28/23 A3002 RMK AO2 SLP165 T02830233 $
KMIA 180253Z 04004KT 10SM FEW025 BKN070 OVC120 28/23 A3002 RMK AO2 SLP166 T02830233 51014 $
KMIA 180153Z 04004KT 10SM FEW025 BKN070 BKN120 BKN250 28/23 A3001 RMK AO2 SLP163 T02830233 $
KMIA 180053Z 05005KT 10SM FEW025 BKN080 BKN250 28/23 A3000 RMK AO2 SLP159 T02830228 $